Airfield :
LOGIN :

Register | Disclaimer

   EN    FR    IT 

 










Legend :    VFR   Marginal VFR   IFR   Intensive IFR   Very Intensive IFR
Visi :
Ceiling :
>= 8 km
>= 3000ft
5 to 8 km
1000 to 3000 ft
1500m to 5 km
500 to 1000 ft
800 to 1500m
200 to 500 ft
< 800m
< 200 ft
Symbols :   Thunderstorms  Fog  Heavy snow  Heavy precipitations  Wind > 20 kt
SIGMETs :     Misc.  Thunderstorms  Icing  Turbulence  Mountain Waves  Volcanic Ashes






- Airport Elevation : 215 ft
- IATA code : ABZ


EGPD - Aberdeen / Dyce

CURRENT METAR :
  • 032020Z AUTO 25004KT 9999 NCD 12/09 Q1001 NOSIG

EXPIRED METARs :
  • 031950Z AUTO 29006KT 9999 SCT047 13/10 Q1001 NOSIG
  • 031920Z AUTO 30005KT 9999 NCD 13/10 Q1001 NOSIG
  • 031850Z AUTO 29006KT 9999 BKN046 13/10 Q1001 NOSIG
  • 031820Z AUTO 29007KT 9999 BKN040 OVC048 12/10 Q1001
  • 031750Z AUTO 29007KT 4000 -RA FEW015 SCT022 OVC033 13/11 Q1001 BECMG 9999 NSW

TAF AMD TAF EGPD
Valid from the 03 at 18:00 until the 04 at 18:00 UTC


031806Z 0318/0418 24006KT 9999 FEW016
PROB30
TEMPO 0318/0320 4000 RA
PROB30 0400/0408 6000
PROB30
TEMPO 0412/0418 7000 SHRA



MET'MAP, your aeronautical weather chart ! - Copyright ORBIFLY December 2007 - Disclaimer

ORBIFLY MET'MAP TEAM :

Programming & Development : Alexandra Zaïnal
Concept & original design : Baudouin d'Aumeries
Assistance for programming : Marc-Olivier Méhu
Technical & hardware support : Manuel Goepfert

Contact : metmap@orbifly.com




SOURCES & CREDITS :

   NOAA